^^

..:: Storico WU ::..




Lo storico viene creato da WUnderground con i dati che la stazione Meteomincio invia al loro server. L' aggiornamento viene fatto ogni 5 minuti circa, tuttavia possono esserci intervalli pi¨ ampi a causa di errori, interruzioni di servizio o problemi nell' invio tramite FTP.


Storico stazione MeteoMincio
Giorno Sommario per Gennaio 10, 2022 Unità:  Inglese    Metrico   Entrambi
Giorno Settimana Mese Anno
  Max: Min: Media:
Temperatura: 40.8 °F 27.3 °F 32.5 °F
Dew Point: 36.7 °F 26.2 °F 30.6 °F
Umidità: 98% 82.6% 93%
Velocità vento: 7.1mph 0mph 3.5mph
Raffica: 12mph - -
Direzione- - West
Pressione: 30.1 in 29.8 in -
Precipitazioni: 0.01 in    
 
 
Tabulato Dati per Gennaio 10, 2022
Ora Temperatura Dew Point Pressione Direzione Velocità vento Raffica Umidità Intensità pioggia (oraria) Info solare Situazione
00:04 30.7 °F 30 °F 29.8 in WSW 0.9 mph 2.3 mph 97.4% 0 in 0 W/m2
00:09 30.7 °F 30.2 °F 29.8 in WSW 1 mph 2.3 mph 98% 0 in 0 W/m2
00:14 30.7 °F 30.2 °F 29.8 in WSW 0.6 mph 2.3 mph 98% 0 in 0 W/m2
00:19 30.7 °F 30.2 °F 29.8 in WSW 0.1 mph 1.2 mph 98% 0 in 0 W/m2
00:24 30.6 °F 30 °F 29.8 in WSW 0.4 mph 1.2 mph 97.3% 0 in 0 W/m2
00:29 30.9 °F 30.4 °F 29.8 in Calm     98% 0 in 0 W/m2
00:34 30.7 °F 30.2 °F 29.8 in Calm     98% 0 in 0 W/m2
00:39 30.7 °F 30.2 °F 29.8 in WSW 0.1 mph 3 mph 97.8% 0 in 0 W/m2
00:44 30.9 °F 30.4 °F 29.8 in WSW 1.8 mph 3.5 mph 98% 0 in 0 W/m2
00:49 30.6 °F 30 °F 29.8 in West 2.2 mph 3.5 mph 97.3% 0 in 0 W/m2
00:54 30.7 °F 30 °F 29.8 in West 3 mph 5 mph 97.6% 0 in 0 W/m2
00:59 30.9 °F 30.6 °F 29.8 in WNW 1.7 mph 5 mph 98% 0 in 0 W/m2
01:04 31.1 °F 30.7 °F 29.8 in West 2.5 mph 5 mph 98% 0 in 0 W/m2
01:09 31.5 °F 30.9 °F 29.8 in West 2.9 mph 5 mph 98% 0 in 0 W/m2
01:14 31.6 °F 31.1 °F 29.8 in WNW 2.6 mph 4 mph 98% 0 in 0 W/m2
01:19 31.6 °F 31.3 °F 29.8 in WNW 2.6 mph 4 mph 98% 0 in 0 W/m2
01:24 31.6 °F 31.1 °F 29.8 in WNW 2.9 mph 5 mph 98% 0 in 0 W/m2
01:29 31.6 °F 31.1 °F 29.8 in WNW 4.2 mph 6 mph 98% 0 in 0 W/m2
01:34 31.6 °F 31.1 °F 29.8 in WNW 3.1 mph 6 mph 97.9% 0 in 0 W/m2
01:39 31.5 °F 30.7 °F 29.8 in WNW 2.9 mph 5 mph 97% 0 in 0 W/m2
01:44 31.3 °F 30.6 °F 29.8 in WNW 2.7 mph 5 mph 97% 0 in 0 W/m2
01:49 31.3 °F 30.6 °F 29.8 in WNW 2.5 mph 4 mph 97% 0 in 0 W/m2
01:54 31.3 °F 30.6 °F 29.8 in WNW 2.8 mph 4 mph 97% 0 in 0 W/m2
01:59 31.3 °F 30.6 °F 29.8 in WNW 2.7 mph 4 mph 97% 0 in 0 W/m2
02:04 31.3 °F 30.6 °F 29.8 in WNW 2.3 mph 4 mph 97% 0 in 0 W/m2
02:09 31.3 °F 30.4 °F 29.8 in WNW 2.7 mph 4 mph 97% 0 in 0 W/m2
02:14 31.3 °F 30.4 °F 29.8 in NW 3.5 mph 6 mph 97% 0 in 0 W/m2
02:19 31.3 °F 30.6 °F 29.8 in NW 4.2 mph 6 mph 97% 0 in 0 W/m2
02:24 31.5 °F 30.7 °F 29.8 in NW 4.8 mph 7 mph 97% 0 in 0 W/m2
02:29 31.6 °F 31.1 °F 29.8 in NW 3.9 mph 7 mph 97.7% 0 in 0 W/m2
02:34 32 °F 31.5 °F 29.8 in NW 4 mph 7 mph 97.5% 0 in 0 W/m2
02:39 32.4 °F 31.8 °F 29.8 in NW 5.3 mph 8 mph 97.8% 0 in 0 W/m2
02:44 32.4 °F 31.8 °F 29.8 in WNW 5.5 mph 8.1 mph 97.6% 0 in 0 W/m2
02:49 32.4 °F 31.6 °F 29.8 in WNW 4.5 mph 8.1 mph 97% 0 in 0 W/m2
02:54 32.4 °F 31.6 °F 29.8 in WNW 3.9 mph 8 mph 97% 0 in 0 W/m2
02:59 32.4 °F 31.5 °F 29.8 in WNW 1.6 mph 7 mph 97% 0 in 0 W/m2
03:04 32.2 °F 31.3 °F 29.8 in WNW 2 mph 4 mph 96.5% 0 in 0 W/m2
03:09 32.2 °F 31.3 °F 29.8 in WNW 2.1 mph 4 mph 96% 0 in 0 W/m2
03:14 32.2 °F 31.3 °F 29.8 in WNW 2.9 mph 5 mph 96.6% 0 in 0 W/m2
03:19 32.4 °F 31.5 °F 29.8 in WNW 2.5 mph 5 mph 97% 0 in 0 W/m2
03:24 32.4 °F 31.5 °F 29.8 in WNW 2.2 mph 4 mph 97% 0 in 0 W/m2
03:29 32.2 °F 31.3 °F 29.8 in WNW 1.9 mph 4 mph 96.3% 0 in 0 W/m2
03:34 31.8 °F 30.9 °F 29.8 in WNW 2.5 mph 4 mph 96% 0 in 0 W/m2
03:39 31.6 °F 30.6 °F 29.8 in WNW 2.9 mph 4 mph 96% 0 in 0 W/m2
03:44 31.5 °F 30.4 °F 29.8 in WNW 3.7 mph 6 mph 96% 0 in 0 W/m2
03:49 31.3 °F 30.4 °F 29.8 in West 2.9 mph 6 mph 96.3% 0 in 0 W/m2
03:54 30.9 °F 30 °F 29.8 in West 2.9 mph 4 mph 96% 0 in 0 W/m2
03:59 30.6 °F 29.5 °F 29.8 in West 2.9 mph 5 mph 96% 0 in 0 W/m2
04:04 30.2 °F 29.1 °F 29.8 in West 3 mph 5 mph 96% 0 in 0 W/m2
04:09 30.4 °F 29.5 °F 29.8 in West 3.4 mph 6 mph 96.7% 0 in 0 W/m2
04:14 30.7 °F 30 °F 29.8 in WNW 4 mph 6 mph 97% 0 in 0 W/m2
04:19 31.1 °F 30.2 °F 29.8 in West 4 mph 6 mph 97% 0 in 0 W/m2
04:24 30.9 °F 30 °F 29.8 in West 3.4 mph 6 mph 96.5% 0 in 0 W/m2
04:29 30.4 °F 29.3 °F 29.8 in West 3.5 mph 6 mph 96% 0 in 0 W/m2
04:34 29.8 °F 28.8 °F 29.8 in West 3.4 mph 6 mph 96% 0 in 0 W/m2
04:39 29.5 °F 28.4 °F 29.8 in West 3.7 mph 5 mph 96% 0 in 0 W/m2
04:44 29.3 °F 28.2 °F 29.8 in West 3.6 mph 5 mph 96% 0 in 0 W/m2
04:49 29.3 °F 28.2 °F 29.8 in West 3.6 mph 5 mph 96% 0 in 0 W/m2
04:54 29.3 °F 28.2 °F 29.8 in West 3.9 mph 6 mph 96% 0 in 0 W/m2
04:59 29.5 °F 28.4 °F 29.8 in West 4 mph 6 mph 96% 0 in 0 W/m2
05:04 29.7 °F 28.6 °F 29.8 in West 3.9 mph 6 mph 96% 0 in 0 W/m2
05:09 29.7 °F 28.6 °F 29.8 in West 3.9 mph 6 mph 96% 0 in 0 W/m2
05:14 29.8 °F 28.8 °F 29.8 in WNW 4.2 mph 7 mph 95.6% 0 in 0 W/m2
05:19 30.4 °F 29.3 °F 29.8 in WNW 5.3 mph 8.1 mph 96% 0 in 0 W/m2
05:24 30.7 °F 29.5 °F 29.8 in WNW 4.7 mph 8 mph 95.1% 0 in 0 W/m2
05:29 30.7 °F 29.1 °F 29.8 in WNW 4.3 mph 6 mph 93.8% 0 in 0 W/m2
05:34 30.7 °F 28.9 °F 29.8 in WNW 4.3 mph 6 mph 93% 0 in 0 W/m2
05:39 30.6 °F 28.8 °F 29.8 in WNW 4 mph 6 mph 92.8% 0 in 0 W/m2
05:44 30.6 °F 28.6 °F 29.8 in West 3.1 mph 6 mph 92% 0 in 0 W/m2
05:49 30.4 °F 28.4 °F 29.8 in West 2.5 mph 5 mph 92% 0 in 0 W/m2
05:54 30.2 °F 28.2 °F 29.8 in West 2.4 mph 4 mph 92% 0 in 0 W/m2
05:59 30 °F 28 °F 29.8 in West 2 mph 4 mph 92% 0 in 0 W/m2
06:04 29.8 °F 27.9 °F 29.8 in WNW 2 mph 3.5 mph 92% 0 in 0 W/m2
06:09 29.7 °F 27.7 °F 29.8 in WNW 2.7 mph 4.6 mph 92.2% 0 in 0 W/m2
06:14 29.7 °F 27.7 °F 29.8 in WNW 3.5 mph 5 mph 92.2% 0 in 0 W/m2
06:19 29.7 °F 27.7 °F 29.8 in WNW 3.5 mph 5 mph 92% 0 in 0 W/m2
06:24 29.8 °F 27.9 °F 29.8 in West 2.3 mph 5 mph 92% 0 in 0 W/m2
06:29 29.5 °F 27.5 °F 29.8 in West 1.7 mph 3 mph 91.7% 0 in 0 W/m2
06:34 28.9 °F 26.8 °F 29.8 in West 2.2 mph 3.5 mph 92% 0 in 0 W/m2
06:39 28.4 °F 26.6 °F 29.8 in WNW 2.6 mph 4 mph 92.6% 0 in 0 W/m2
06:44 28.4 °F 26.6 °F 29.8 in WNW 2.9 mph 4 mph 93% 0 in 0 W/m2
06:49 29.1 °F 27.3 °F 29.8 in WNW 3.9 mph 6 mph 92.8% 0 in 0 W/m2
06:54 30 °F 27.7 °F 29.8 in WNW 3.6 mph 6 mph 90.9% 0 in 0 W/m2
06:59 30.4 °F 27.5 °F 29.8 in WNW 3 mph 5 mph 89.3% 0 in 0 W/m2
07:04 30.6 °F 27.7 °F 29.8 in WNW 3.2 mph 5 mph 89% 0 in 0 W/m2
07:09 30.4 °F 27.3 °F 29.8 in WNW 3.8 mph 6 mph 88.1% 0 in 0 W/m2
07:14 30.2 °F 27.1 °F 29.8 in WNW 4 mph 6 mph 88% 0 in 0 W/m2
07:19 30 °F 27.1 °F 29.8 in WNW 4.5 mph 6 mph 88.6% 0 in 0 W/m2
07:24 30.2 °F 27.1 °F 29.8 in West 3.9 mph 6 mph 88% 0 in 0 W/m2
07:29 30.2 °F 27.1 °F 29.8 in West 3.4 mph 5 mph 88.4% 0 in 0 W/m2
07:34 29.7 °F 27 °F 29.8 in West 3.1 mph 5 mph 89.2% 0 in 0 W/m2
07:39 29.5 °F 27 °F 29.8 in West 3.7 mph 5 mph 90.5% 0 in 0 W/m2
07:44 29.7 °F 27.3 °F 29.8 in West 3.5 mph 5 mph 90.5% 0 in 0 W/m2
07:49 30.2 °F 27.7 °F 29.8 in WSW 3.1 mph 6 mph 90.4% 0 in 0 W/m2
07:54 30.6 °F 27.7 °F 29.8 in SW 4.2 mph 7 mph 89.2% 0 in 0 W/m2
07:59 30.6 °F 27.7 °F 29.8 in SSW 3.8 mph 7 mph 89% 0 in 0 W/m2
08:04 30.6 °F 27.7 °F 29.8 in SSW 3.5 mph 6 mph 89.2% 0 in 0 W/m2
08:09 30.6 °F 27.9 °F 29.8 in SSW 4.3 mph 7 mph 90% 0 in 0 W/m2
08:14 30.4 °F 27.9 °F 29.8 in SW 4.6 mph 7 mph 90.4% 0 in 5 W/m2
08:19 30.2 °F 27.9 °F 29.8 in SW 4.2 mph 7 mph 91% 0 in 5 W/m2
08:24 30.2 °F 28 °F 29.8 in WSW 5.3 mph 8.1 mph 91.3% 0 in 7 W/m2
08:29 30.2 °F 28.2 °F 29.8 in SW 4 mph 8 mph 92% 0 in 7 W/m2
08:34 30.4 °F 28.4 °F 29.8 in SW 4.4 mph 7 mph 92% 0 in 9 W/m2
08:39 30.4 °F 28.6 °F 29.8 in SW 3.9 mph 6 mph 92.5% 0 in 12 W/m2
08:44 30.6 °F 28.8 °F 29.8 in SW 3.4 mph 6 mph 93% 0 in 14 W/m2
08:49 30.6 °F 28.8 °F 29.8 in SW 4.2 mph 6 mph 93% 0 in 16 W/m2
08:54 30.6 °F 28.8 °F 29.8 in WSW 4.8 mph 8 mph 93% 0 in 18 W/m2
08:59 30.4 °F 28.6 °F 29.8 in WSW 5.2 mph 8.1 mph 93% 0 in 21 W/m2
09:04 30.4 °F 28.6 °F 29.8 in WSW 4.7 mph 8 mph 93% 0 in 23 W/m2
09:09 30.4 °F 28.6 °F 29.9 in WSW 4.9 mph 8.1 mph 93% 0 in 26 W/m2
09:14 30.4 °F 28.6 °F 29.9 in WSW 5.2 mph 9.2 mph 93% 0 in 30 W/m2
09:19 30.4 °F 28.8 °F 29.9 in WSW 4.5 mph 9 mph 93.4% 0 in 33 W/m2
09:24 30.4 °F 28.9 °F 29.9 in SW 4.6 mph 7 mph 93.8% 0 in 37 W/m2
09:29 30.6 °F 28.8 °F 29.9 in SW 4.7 mph 8.1 mph 93% 0 in 44 W/m2
09:34 30.6 °F 28.8 °F 29.9 in WSW 6 mph 9.2 mph 93% 0 in 47 W/m2
09:39 30.4 °F 28.6 °F 29.9 in WSW 5.5 mph 9 mph 93% 0 in 49 W/m2
09:44 30.4 °F 28.6 °F 29.9 in WSW 6.6 mph 12 mph 93.3% 0 in 54 W/m2
09:49 30 °F 28.2 °F 29.9 in West 7.1 mph 12 mph 93% 0 in 62 W/m2
09:54 30 °F 28.6 °F 29.9 in West 7.1 mph 12 mph 93.8% 0 in 69 W/m2
09:59 30.2 °F 28.6 °F 29.9 in West 6.5 mph 10.4 mph 94% 0 in 77 W/m2
10:04 30.2 °F 28.6 °F 29.9 in West 7.1 mph 10.4 mph 93.6% 0 in 90 W/m2
10:09 30.4 °F 28.8 °F 29.9 in West 7.1 mph 11 mph 93.5% 0 in 100 W/m2
10:14 30.6 °F 28.8 °F 29.9 in West 5.8 mph 11 mph 93% 0 in 118 W/m2
10:19 30.7 °F 28.9 °F 29.9 in West 6.2 mph 11.5 mph 93% 0 in 137 W/m2
10:24 30.9 °F 29.1 °F 29.9 in West 6.2 mph 12 mph 93% 0 in 149 W/m2
10:29 31.3 °F 29.3 °F 29.9 in WNW 4.5 mph 10 mph 92.1% 0 in 200 W/m2
10:34 31.6 °F 29.3 °F 29.9 in WNW 1.6 mph 8 mph 91.4% 0 in 200 W/m2
10:39 31.8 °F 29.5 °F 29.9 in WNW 3 mph 6 mph 90.8% 0 in 216 W/m2
10:44 32 °F 29.7 °F 29.9 in WNW 3.5 mph 6 mph 90.8% 0 in 214 W/m2
10:49 32.2 °F 29.7 °F 29.9 in West 3 mph 6 mph 90.5% 0 in 171 W/m2
10:54 32.2 °F 29.7 °F 29.9 in WNW 3.9 mph 8 mph 90% 0 in 274 W/m2
10:59 32.5 °F 30 °F 29.9 in WNW 5.9 mph 8.1 mph 90% 0 in 274 W/m2
11:04 32.9 °F 30.2 °F 29.9 in West 4.4 mph 8.1 mph 90% 0 in 214 W/m2
11:09 32.9 °F 30.2 °F 29.9 in WNW 5.8 mph 8.1 mph 89.9% 0 in 207 W/m2
11:14 33.1 °F 30.6 °F 29.9 in WNW 6.3 mph 9.2 mph 90.4% 0 in 244 W/m2
11:19 33.4 °F 30.7 °F 29.9 in WNW 5.6 mph 8.1 mph 89.3% 0 in 306 W/m2
11:24 34 °F 30.9 °F 29.9 in WNW 5.7 mph 9 mph 88.3% 0 in 357 W/m2
11:29 34.3 °F 30.9 °F 29.9 in WNW 6.6 mph 9.2 mph 86.8% 0 in 392 W/m2
11:34 34.9 °F 31.1 °F 29.9 in WNW 5.2 mph 9 mph 86.5% 0 in 392 W/m2
11:39 35.1 °F 31.8 °F 29.9 in West 4.5 mph 8 mph 87.8% 0 in 272 W/m2
11:44 35.1 °F 31.6 °F 29.9 in West 5.5 mph 8.1 mph 87.8% 0 in 241 W/m2
11:49 35.1 °F 31.6 °F 29.9 in West 5.8 mph 8 mph 86.9% 0 in 260 W/m2
11:54 35.4 °F 31.8 °F 29.9 in WNW 5.1 mph 8.1 mph 86.9% 0 in 265 W/m2
11:59 35.6 °F 31.8 °F 29.9 in West 4.8 mph 8 mph 86.1% 0 in 246 W/m2
12:04 35.8 °F 32 °F 29.9 in West 4.1 mph 7 mph 85.8% 0 in 292 W/m2
12:09 36.1 °F 32.4 °F 29.9 in WNW 2.6 mph 6 mph 86.2% 0 in 262 W/m2
12:14 36.5 °F 32.5 °F 29.9 in WNW 2.7 mph 5 mph 85.4% 0 in 292 W/m2
12:19 36.9 °F 32.9 °F 29.9 in WNW 2.2 mph 5 mph 85.5% 0 in 274 W/m2
12:24 37 °F 33.1 °F 29.9 in WNW 3.4 mph 5 mph 85.2% 0 in 274 W/m2
12:29 37.6 °F 33.4 °F 29.9 in West 2.3 mph 5 mph 85.2% 0 in 269 W/m2
12:34 37.8 °F 33.4 °F 29.9 in West 2.3 mph 4 mph 84.3% 0 in 267 W/m2
12:39 38.1 °F 33.6 °F 29.9 in WSW 2.7 mph 4 mph 83.8% 0 in 246 W/m2
12:44 38.3 °F 33.8 °F 29.9 in WSW 2.1 mph 4 mph 83.8% 0 in 237 W/m2
12:49 38.7 °F 34 °F 29.9 in West 1.4 mph 4 mph 83% 0 in 251 W/m2
12:54 39 °F 34.2 °F 29.9 in WSW 2.5 mph 4 mph 82.7% 0 in 227 W/m2
12:59 39.2 °F 34.5 °F 29.9 in WSW 1.8 mph 4 mph 83.2% 0 in 195 W/m2
13:04 39.2 °F 34.7 °F 29.9 in SW 2 mph 5 mph 83.3% 0 in 179 W/m2
13:09 39.4 °F 34.7 °F 29.9 in WSW 2.5 mph 5 mph 82.7% 0 in 179 W/m2
13:14 39.6 °F 34.7 °F 29.9 in WSW 2.1 mph 5 mph 82.6% 0 in 165 W/m2
13:19 39.7 °F 35.2 °F 29.9 in WSW 2.2 mph 3.5 mph 83.5% 0 in 156 W/m2
13:24 39.7 °F 35.2 °F 29.9 in WSW 2.4 mph 4 mph 83.5% 0 in 156 W/m2
13:29 39.7 °F 35.4 °F 29.9 in WSW 3.7 mph 6 mph 84.5% 0 in 156 W/m2
13:34 39.9 °F 35.8 °F 29.9 in WSW 3.5 mph 6 mph 85% 0 in 171 W/m2
13:39 39.9 °F 35.6 °F 29.9 in WSW 4.3 mph 7 mph 84.2% 0 in 169 W/m2
13:44 40.1 °F 36 °F 29.9 in WSW 4 mph 7 mph 84.9% 0 in 169 W/m2
13:49 40.1 °F 36.1 °F 29.9 in WSW 4.4 mph 7 mph 85.2% 0 in 158 W/m2
13:54 40.3 °F 36.1 °F 29.9 in WSW 4.5 mph 7 mph 85.2% 0 in 144 W/m2
13:59 40.1 °F 35.8 °F 29.9 in SW 3.7 mph 7 mph 84.3% 0 in 142 W/m2
14:04 40.1 °F 35.8 °F 29.9 in WSW 4.6 mph 6 mph 84.2% 0 in 151 W/m2
14:09 40.1 °F 36 °F 29.9 in WSW 4.5 mph 7 mph 84.6% 0 in 155 W/m2
14:14 40.3 °F 36.1 °F 29.9 in WSW 4.2 mph 7 mph 85% 0 in 155 W/m2
14:19 40.5 °F 36.3 °F 29.9 in WSW 4 mph 6 mph 85.2% 0 in 155 W/m2
14:24 40.5 °F 36.3 °F 29.9 in WSW 4.7 mph 6 mph 84.8% 0 in 153 W/m2
14:29 40.5 °F 36.1 °F 29.9 in WSW 3.7 mph 6 mph 84.6% 0 in 149 W/m2
14:34 40.5 °F 36.1 °F 29.9 in WSW 3.8 mph 6 mph 84.4% 0 in 142 W/m2
14:39 40.6 °F 36.3 °F 29.9 in WSW 4.5 mph 7 mph 84.7% 0 in 141 W/m2
14:44 40.8 °F 36.5 °F 29.9 in WSW 4.8 mph 8.1 mph 84.7% 0 in 137 W/m2
14:49 40.8 °F 36.7 °F 29.9 in WSW 4.9 mph 8 mph 84.9% 0 in 132 W/m2
14:54 40.6 °F 36.3 °F 29.9 in WSW 4.7 mph 8.1 mph 85% 0 in 123 W/m2
14:59 40.3 °F 36.1 °F 29.9 in WSW 4.7 mph 8 mph 85.3% 0 in 123 W/m2
15:04 39.9 °F 36 °F 29.9 in WSW 5.4 mph 8.1 mph 85.6% 0.01 in 114 W/m2
15:09 39.7 °F 36.1 °F 29.9 in WSW 3.9 mph 8 mph 86.9% 0.01 in 107 W/m2
15:14 39.7 °F 36.1 °F 29.9 in WSW 4.3 mph 7 mph 87.6% 0.01 in 100 W/m2
15:19 39.2 °F 36 °F 29.9 in WSW 3.7 mph 7 mph 88.1% 0.01 in 95 W/m2
15:24 38.8 °F 35.8 °F 29.9 in WSW 4.2 mph 7 mph 89% 0.01 in 107 W/m2
15:29 38.5 °F 35.4 °F 29.9 in WSW 4.2 mph 7 mph 89% 0.01 in 46 W/m2
15:34 37.9 °F 34.9 °F 29.9 in WSW 4.2 mph 7 mph 89% 0.01 in 100 W/m2
15:39 37.6 °F 34.9 °F 29.9 in SW 4 mph 7 mph 89.9% 0.01 in 40 W/m2
15:44 37.6 °F 34.9 °F 29.9 in WSW 3.3 mph 7 mph 90% 0.01 in 77 W/m2
15:49 37.4 °F 34.7 °F 29.9 in WSW 3.9 mph 6 mph 90% 0.01 in 53 W/m2
15:54 37.4 °F 34.9 °F 29.9 in WSW 4.8 mph 7 mph 90.8% 0.01 in 49 W/m2
15:59 37.2 °F 34.9 °F 29.9 in WSW 4.7 mph 8.1 mph 91% 0.01 in 37 W/m2
16:04 37.2 °F 34.9 °F 29.9 in WSW 4 mph 8.1 mph 91% 0.01 in 30 W/m2
16:09 37.2 °F 34.7 °F 29.9 in WSW 4 mph 6 mph 91% 0 in 28 W/m2
16:14 36.9 °F 34.5 °F 29.9 in WSW 3.9 mph 7 mph 91% 0 in 23 W/m2
16:19 36.5 °F 34.3 °F 29.9 in WSW 4.5 mph 7 mph 91.6% 0 in 23 W/m2
16:24 36.3 °F 34.2 °F 29.9 in WSW 4.2 mph 7 mph 92% 0 in 21 W/m2
16:29 36.1 °F 34 °F 29.9 in WSW 3.3 mph 7 mph 92% 0 in 19 W/m2
16:34 35.8 °F 33.8 °F 29.9 in West 3.6 mph 6 mph 92.2% 0 in 14 W/m2
16:39 35.6 °F 33.8 °F 29.9 in West 3.5 mph 6 mph 93% 0 in 11 W/m2
16:44 35.6 °F 33.6 °F 29.9 in West 4.7 mph 8.1 mph 92.6% 0 in 11 W/m2
16:49 35.8 °F 33.6 °F 29.9 in WNW 4.7 mph 8 mph 91.6% 0 in 9 W/m2
16:54 35.8 °F 33.4 °F 29.9 in West 3.5 mph 7 mph 90.7% 0 in 5 W/m2
16:59 35.6 °F 33.1 °F 30 in WNW 3.2 mph 6 mph 90.4% 0 in 0 W/m2
17:04 35.6 °F 33.1 °F 30 in West 2.8 mph 7 mph 91% 0 in 0 W/m2
17:09 35.4 °F 32.9 °F 30 in WSW 3.3 mph 7 mph 90.6% 0 in 0 W/m2
17:14 34.7 °F 32.4 °F 30 in WSW 2.5 mph 5 mph 91% 0 in 0 W/m2
17:19 34 °F 31.8 °F 30 in WSW 2.5 mph 5 mph 91.3% 0 in 0 W/m2
17:24 33.6 °F 31.6 °F 30 in WSW 2.7 mph 4 mph 92.3% 0 in 0 W/m2
17:29 33.3 °F 31.5 °F 30 in WSW 3 mph 5 mph 93% 0 in 0 W/m2
17:34 33.1 °F 31.5 °F 30 in West 4.2 mph 6 mph 93.1% 0 in 0 W/m2
17:39 33.1 °F 31.3 °F 30 in WSW 4.3 mph 6 mph 93% 0 in 0 W/m2
17:44 32.9 °F 31.3 °F 30 in WSW 4.2 mph 6 mph 93.5% 0 in 0 W/m2
17:49 32.7 °F 31.3 °F 30 in WSW 3.5 mph 6 mph 94% 0 in 0 W/m2
17:54 32.7 °F 31.1 °F 30 in West 3.4 mph 6 mph 94% 0 in 0 W/m2
17:59 32.5 °F 31.1 °F 30 in WSW 3.5 mph 6 mph 94% 0 in 0 W/m2
18:04 32.7 °F 31.1 °F 30 in West 3.7 mph 6 mph 94% 0 in 0 W/m2
18:09 32.5 °F 31.1 °F 30 in West 3.7 mph 5 mph 94% 0 in 0 W/m2
18:14 32.4 °F 30.9 °F 30 in WSW 2.9 mph 5 mph 94% 0 in 0 W/m2
18:19 32.4 °F 30.9 °F 30 in WSW 2.5 mph 5 mph 94% 0 in 0 W/m2
18:24 32.2 °F 30.7 °F 30 in WSW 3 mph 5 mph 94% 0 in 0 W/m2
18:29 32 °F 30.6 °F 30 in West 2.4 mph 5 mph 94.2% 0 in 0 W/m2
18:34 32 °F 30.7 °F 30 in West 3 mph 5 mph 94.7% 0 in 0 W/m2
18:39 31.8 °F 30.4 °F 30 in West 3.6 mph 5 mph 94.4% 0 in 0 W/m2
18:44 31.8 °F 30.6 °F 30 in WSW 3.2 mph 5 mph 95% 0 in 0 W/m2
18:49 32 °F 30.6 °F 30 in WSW 3 mph 5 mph 95% 0 in 0 W/m2
18:54 31.6 °F 30.2 °F 30 in WSW 3.1 mph 5 mph 94.5% 0 in 0 W/m2
18:59 31.5 °F 30.2 °F 30 in WSW 3 mph 5 mph 95% 0 in 0 W/m2
19:04 31.3 °F 30 °F 30 in West 3.3 mph 5 mph 95% 0 in 0 W/m2
19:09 31.5 °F 30.2 °F 30 in West 3.6 mph 6 mph 95% 0 in 0 W/m2
19:14 31.6 °F 30.4 °F 30 in West 3.5 mph 5 mph 95% 0 in 0 W/m2
19:19 31.6 °F 30.4 °F 30 in West 4 mph 6 mph 95% 0 in 0 W/m2
19:24 31.6 °F 30.4 °F 30 in WSW 3.4 mph 6 mph 95% 0 in 0 W/m2
19:29 31.6 °F 30.4 °F 30 in WSW 3.3 mph 5 mph 95% 0 in 0 W/m2
19:34 31.3 °F 30 °F 30 in WSW 3.5 mph 5 mph 95% 0 in 0 W/m2
19:39 31.3 °F 30 °F 30 in WSW 3.4 mph 5 mph 95% 0 in 0 W/m2
19:44 31.1 °F 29.8 °F 30 in WSW 3.8 mph 5 mph 95% 0 in 0 W/m2
19:49 30.9 °F 29.7 °F 30 in WSW 3.8 mph 5 mph 95% 0 in 0 W/m2
19:54 30.7 °F 29.3 °F 30 in WSW 4.3 mph 6 mph 95% 0 in 0 W/m2
19:59 30.6 °F 29.3 °F 30 in West 3.9 mph 6 mph 95.1% 0 in 0 W/m2
20:04 30.6 °F 29.7 °F 30 in West 3.5 mph 5 mph 96% 0 in 0 W/m2
20:09 30.7 °F 29.7 °F 30 in West 3.4 mph 5 mph 96% 0 in 0 W/m2
20:14 31.3 °F 30.2 °F 30 in WNW 4.5 mph 7 mph 96% 0 in 0 W/m2
20:19 31.8 °F 30.7 °F 30 in WNW 4.8 mph 7 mph 96% 0 in 0 W/m2
20:24 32 °F 30.7 °F 30 in WNW 5.3 mph 7 mph 95.2% 0 in 0 W/m2
20:29 32 °F 30.7 °F 30 in WNW 6 mph 8.1 mph 95% 0 in 0 W/m2
20:34 31.8 °F 30.6 °F 30 in WNW 5.5 mph 8 mph 94.9% 0 in 0 W/m2
20:39 31.8 °F 30.6 °F 30 in WNW 5 mph 7 mph 95% 0 in 0 W/m2
20:44 31.6 °F 30.2 °F 30 in West 2.4 mph 7 mph 94.2% 0 in 0 W/m2
20:49 31.1 °F 29.7 °F 30 in West 1.2 mph 6 mph 94.2% 0 in 0 W/m2
20:54 30.9 °F 29.7 °F 30 in West 1.7 mph 3.5 mph 95% 0 in 0 W/m2
20:59 31.1 °F 29.8 °F 30 in WNW 2.1 mph 3.5 mph 95% 0 in 0 W/m2
21:04 31.1 °F 29.8 °F 30 in WNW 2.9 mph 5 mph 95% 0 in 0 W/m2
21:09 31.1 °F 29.8 °F 30 in WNW 3 mph 6 mph 95% 0 in 0 W/m2
21:14 31.1 °F 29.7 °F 30 in NW 1.9 mph 6 mph 94.3% 0 in 0 W/m2
21:19 30.6 °F 29.1 °F 30 in NW 1.1 mph 3 mph 94.3% 0 in 0 W/m2
21:24 30.6 °F 29.3 °F 30 in NW 0.6 mph 2.3 mph 95% 0 in 0 W/m2
21:29 30.6 °F 29.1 °F 30 in NW 1.2 mph 2.3 mph 94.7% 0 in 0 W/m2
21:34 30.4 °F 28.9 °F 30 in NW 1.7 mph 3.5 mph 94.9% 0 in 0 W/m2
21:39 30.4 °F 28.9 °F 30 in NW 1.9 mph 3.5 mph 95% 0 in 0 W/m2
21:44 30.4 °F 29.1 °F 30 in WNW 1.2 mph 3.5 mph 95% 0 in 0 W/m2
21:49 30.2 °F 28.8 °F 30 in SE 2.7 mph 6 mph 94.7% 0 in 0 W/m2
21:54 30 °F 28.8 °F 30 in ESE 1.3 mph 6 mph 95% 0 in 0 W/m2
21:59 29.7 °F 28.4 °F 30 in SE 1.2 mph 3.5 mph 95% 0 in 0 W/m2
22:04 29.3 °F 28 °F 30 in South 1 mph 3 mph 95% 0 in 0 W/m2
22:09 29.3 °F 28 °F 30 in SSW 1.9 mph 3.5 mph 95% 0 in 0 W/m2
22:14 29.1 °F 27.9 °F 30 in SW 2.3 mph 4 mph 95% 0 in 0 W/m2
22:19 28.6 °F 27.3 °F 30.1 in SW 3.1 mph 4 mph 95% 0 in 0 W/m2
22:24 28.2 °F 27 °F 30.1 in WSW 2.8 mph 4 mph 95% 0 in 0 W/m2
22:29 28 °F 27 °F 30.1 in WSW 2.9 mph 4 mph 95% 0 in 0 W/m2
22:34 28.2 °F 27.1 °F 30.1 in West 3.5 mph 5 mph 95.8% 0 in 0 W/m2
22:39 28.4 °F 27.3 °F 30.1 in West 3.1 mph 5 mph 96% 0 in 0 W/m2
22:44 28.8 °F 27.7 °F 30.1 in West 2.1 mph 5 mph 96% 0 in 0 W/m2
22:49 28.6 °F 27.3 °F 30.1 in West 2.5 mph 5 mph 95.2% 0 in 0 W/m2
22:54 28 °F 26.8 °F 30.1 in West 2.3 mph 5 mph 95% 0 in 0 W/m2
22:59 28 °F 26.8 °F 30.1 in West 2.7 mph 5 mph 95% 0 in 0 W/m2
23:04 27.9 °F 26.6 °F 30.1 in West 3 mph 5 mph 95% 0 in 0 W/m2
23:09 27.9 °F 26.6 °F 30.1 in West 2.5 mph 5 mph 95% 0 in 0 W/m2
23:14 27.7 °F 26.4 °F 30.1 in West 3 mph 5 mph 95% 0 in 0 W/m2
23:19 27.7 °F 26.6 °F 30.1 in West 3.2 mph 5 mph 95% 0 in 0 W/m2
23:24 27.7 °F 26.4 °F 30.1 in West 3.6 mph 5 mph 95% 0 in 0 W/m2
23:29 27.5 °F 26.2 °F 30.1 in WSW 3.6 mph 5 mph 95% 0 in 0 W/m2
23:34 27.3 °F 26.2 °F 30.1 in West 3.8 mph 5 mph 95% 0 in 0 W/m2
23:39 27.3 °F 26.2 °F 30.1 in West 3.9 mph 5 mph 95% 0 in 0 W/m2
23:44 27.7 °F 26.4 °F 30.1 in WSW 3.7 mph 5 mph 95% 0 in 0 W/m2
23:49 28 °F 26.8 °F 30.1 in West 4.1 mph 6 mph 95% 0 in 0 W/m2
23:54 27.9 °F 26.8 °F 30.1 in West 3.9 mph 6 mph 95% 0 in 0 W/m2
23:59 27.9 °F 26.6 °F 30.1 in West 3 mph 6 mph 95% 0 in 0 W/m2
Stazione Meteorologica MeteoMincio Rivalta s/M (MN)
Con i complimenti di Weather Underground - 4 mb


METEO PILLOLE
Maggior quantità di pioggia caduta in 12 ore in Italia
Rossiglione nell'entroterra genovese dalle 5.40 alle 17.40
Il 4 ottobre 2021 caddero 740.6mm di pioggia.

Do NOT follow this link or you will be banned from the site!